Time;durP1;ratioP1;P1;durP2;ratioP2;P2;SDS_P1;SDS_P2;PMS_P1;PMS_P2;Temp;Humidity;BMP_temperature;BMP_pressure;BME280_temperature;BME280_humidity;BME280_pressure;Samples;Min_cycle;Max_cycle;Signal;HPM_P1;HPM_P2
2022/04/05 00:00:28;;;;;;;29.48;23.60;;;0.70;99.90;;;;;;5052409;28;20392;-88
2022/04/05 00:02:57;;;;;;;31.00;23.50;;;0.80;99.90;;;;;;5054036;28;20480;-88
2022/04/05 00:05:24;;;;;;;29.58;23.17;;;0.70;99.90;;;;;;5040227;28;20458;-88
2022/04/05 00:07:52;;;;;;;30.33;24.45;;;0.70;99.90;;;;;;5052354;28;20432;-88
2022/04/05 00:10:21;;;;;;;31.20;24.55;;;0.70;99.90;;;;;;5052658;28;20453;-87
2022/04/05 00:12:49;;;;;;;29.65;24.02;;;0.70;99.90;;;;;;5041992;28;20418;-87
2022/04/05 00:15:17;;;;;;;30.05;24.33;;;0.70;99.90;;;;;;5052191;28;20404;-86
2022/04/05 00:17:45;;;;;;;30.80;23.38;;;0.70;99.90;;;;;;5047702;28;20391;-86
2022/04/05 00:20:13;;;;;;;31.47;23.90;;;0.70;99.90;;;;;;5051090;28;20470;-86
2022/04/05 00:22:40;;;;;;;29.80;22.42;;;0.70;99.90;;;;;;5053536;28;20383;-86
2022/04/05 00:25:09;;;;;;;29.20;23.47;;;0.70;99.90;;;;;;5049654;28;20405;-87
2022/04/05 00:27:36;;;;;;;29.13;22.90;;;0.70;99.90;;;;;;5035688;28;20399;-87
2022/04/05 00:30:05;;;;;;;31.98;24.23;;;0.70;99.90;;;;;;5041897;28;20519;-87
2022/04/05 00:32:33;;;;;;;29.83;23.70;;;0.70;99.90;;;;;;5053379;28;20893;-86
2022/04/05 00:35:01;;;;;;;30.58;23.52;;;0.70;99.90;;;;;;5045042;28;20445;-86
2022/04/05 00:37:28;;;;;;;31.83;24.25;;;0.70;99.90;;;;;;5041071;28;20441;-87
2022/04/05 00:39:56;;;;;;;32.00;24.55;;;0.60;99.90;;;;;;5044828;28;20403;-88
2022/04/05 00:42:23;;;;;;;31.50;23.17;;;0.70;99.90;;;;;;5045894;28;20515;-86
2022/04/05 00:44:51;;;;;;;29.05;23.42;;;0.60;99.90;;;;;;5051719;28;20498;-87
2022/04/05 00:47:21;;;;;;;30.50;23.17;;;0.60;99.90;;;;;;5053324;28;20455;-85
2022/04/05 00:49:51;;;;;;;28.42;21.38;;;0.60;99.90;;;;;;5052715;28;20399;-86
2022/04/05 00:52:21;;;;;;;27.23;20.90;;;0.70;99.90;;;;;;5044491;28;20491;-87
2022/04/05 00:54:51;;;;;;;29.05;22.42;;;0.70;99.90;;;;;;5044272;28;20469;-87
2022/04/05 00:57:21;;;;;;;30.92;22.33;;;0.70;99.90;;;;;;5051489;28;20407;-87
2022/04/05 00:59:58;;;;;;;30.05;24.25;;;0.60;99.90;;;;;;5052584;28;20447;-88
2022/04/05 01:02:28;;;;;;;31.02;23.63;;;0.60;99.90;;;;;;5040994;28;20710;-87
2022/04/05 01:04:56;;;;;;;29.63;22.75;;;0.60;99.90;;;;;;5086455;28;20402;-87
2022/04/05 01:07:27;;;;;;;30.98;24.10;;;0.50;99.90;;;;;;5064352;28;20397;-86
2022/04/05 01:09:56;;;;;;;30.80;22.83;;;0.60;99.90;;;;;;5068865;28;20937;-86
2022/04/05 01:12:23;;;;;;;33.10;24.48;;;0.60;99.90;;;;;;5056868;28;20396;-86
2022/04/05 01:14:52;;;;;;;30.58;23.00;;;0.60;99.90;;;;;;5073320;28;20400;-87
2022/04/05 01:17:20;;;;;;;29.90;22.25;;;0.50;99.90;;;;;;5075236;28;20473;-87
2022/04/05 01:19:48;;;;;;;30.05;22.30;;;0.50;99.90;;;;;;5075702;28;20584;-86
2022/04/05 01:22:15;;;;;;;29.10;22.23;;;0.60;99.90;;;;;;5063682;28;20505;-86
2022/04/05 01:24:43;;;;;;;31.90;22.42;;;0.60;99.90;;;;;;5088739;28;20440;-86
2022/04/05 01:27:17;;;;;;;28.58;23.17;;;0.60;99.90;;;;;;5056711;28;20389;-87
2022/04/05 01:29:47;;;;;;;30.13;22.67;;;0.60;99.90;;;;;;5078910;28;20409;-87
2022/04/05 01:32:15;;;;;;;31.50;23.70;;;0.50;99.90;;;;;;5068474;28;20874;-88
2022/04/05 01:34:43;;;;;;;31.45;23.02;;;0.50;99.90;;;;;;5066811;28;20491;-86
2022/04/05 01:37:11;;;;;;;30.38;22.52;;;0.50;99.90;;;;;;5073560;28;20483;-85
2022/04/05 01:39:40;;;;;;;31.95;22.73;;;0.50;99.90;;;;;;5073743;28;21021;-86
2022/04/05 01:42:12;;;;;;;30.50;22.55;;;0.50;99.90;;;;;;5057177;28;20405;-87
2022/04/05 01:44:40;;;;;;;31.25;23.63;;;0.50;99.90;;;;;;5063832;28;20497;-87
2022/04/05 01:47:11;;;;;;;30.70;23.25;;;0.40;99.90;;;;;;5063562;28;20402;-86
2022/04/05 01:49:40;;;;;;;30.80;24.00;;;0.40;99.90;;;;;;5064407;28;20413;-87
2022/04/05 01:52:09;;;;;;;30.05;23.60;;;0.40;99.90;;;;;;5073481;28;20418;-87
2022/04/05 01:54:38;;;;;;;30.42;22.58;;;0.40;99.90;;;;;;5065363;28;20389;-87
2022/04/05 01:57:06;;;;;;;33.13;23.93;;;0.40;99.90;;;;;;5068060;28;20487;-87
2022/04/05 01:59:37;;;;;;;28.92;22.15;;;0.40;99.90;;;;;;5091631;28;20739;-87
2022/04/05 02:02:09;;;;;;;29.13;23.63;;;0.40;99.90;;;;;;5090421;28;20423;-87
2022/04/05 02:04:38;;;;;;;27.63;21.63;;;0.30;99.90;;;;;;5073899;28;20404;-87
2022/04/05 02:07:14;;;;;;;30.02;22.70;;;0.30;99.90;;;;;;5073957;28;20739;-86
2022/04/05 02:09:43;;;;;;;29.05;22.42;;;0.30;99.90;;;;;;5061443;28;20437;-87
2022/04/05 02:12:11;;;;;;;29.58;21.85;;;0.30;99.90;;;;;;5057409;28;20396;-87
2022/04/05 02:14:58;;;;;;;28.58;21.55;;;0.30;99.90;;;;;;5070835;28;20897;-85
2022/04/05 02:17:34;;;;;;;30.80;22.88;;;0.30;99.90;;;;;;5058312;28;20447;-86
2022/04/05 02:20:06;;;;;;;31.10;23.85;;;0.30;99.90;;;;;;5057475;28;20404;-86
2022/04/05 02:22:35;;;;;;;30.35;22.50;;;0.30;99.90;;;;;;5077857;28;20396;-86
2022/04/05 02:25:10;;;;;;;29.05;23.08;;;0.30;99.90;;;;;;5058427;28;20392;-86
2022/04/05 02:27:41;;;;;;;29.35;22.55;;;0.30;99.90;;;;;;5064358;28;20406;-86
2022/04/05 02:30:13;;;;;;;30.42;22.92;;;0.30;99.90;;;;;;5066111;28;20797;-87
2022/04/05 02:32:42;;;;;;;26.35;21.48;;;0.30;99.90;;;;;;5062830;28;20439;-86
2022/04/05 02:35:11;;;;;;;25.52;20.50;;;0.30;99.90;;;;;;5056916;28;20404;-86
2022/04/05 02:37:40;;;;;;;28.83;22.43;;;0.30;99.90;;;;;;5071072;28;20407;-86
2022/04/05 02:40:11;;;;;;;27.98;22.05;;;0.30;99.90;;;;;;5063210;28;20396;-86
2022/04/05 02:42:42;;;;;;;29.70;22.75;;;0.30;99.90;;;;;;5080529;28;20440;-86
2022/04/05 02:45:12;;;;;;;28.38;21.20;;;0.20;99.90;;;;;;5062527;28;20868;-86
2022/04/05 02:47:42;;;;;;;28.60;23.10;;;0.20;99.90;;;;;;5083274;28;20409;-86
2022/04/05 02:50:11;;;;;;;29.27;22.33;;;0.30;99.90;;;;;;5073152;28;20926;-86
2022/04/05 02:52:39;;;;;;;28.08;22.02;;;0.30;99.90;;;;;;5056656;28;20408;-86
2022/04/05 02:55:08;;;;;;;27.73;22.77;;;0.20;99.90;;;;;;5061801;28;20406;-86
2022/04/05 02:57:41;;;;;;;26.80;20.52;;;0.20;99.90;;;;;;5067694;28;20458;-87
2022/04/05 03:00:15;;;;;;;26.75;20.95;;;0.20;99.90;;;;;;5064685;28;20445;-85
2022/04/05 03:02:46;;;;;;;28.23;21.80;;;0.30;99.90;;;;;;5064496;28;20401;-86
2022/04/05 03:05:18;;;;;;;26.97;21.53;;;0.20;99.90;;;;;;5054311;28;20402;-86
2022/04/05 03:07:46;;;;;;;23.63;19.03;;;0.20;99.90;;;;;;5039021;28;20387;-86
2022/04/05 03:10:14;;;;;;;25.65;19.73;;;0.20;99.90;;;;;;5049366;28;20418;-86
2022/04/05 03:12:46;;;;;;;26.02;20.10;;;0.30;99.90;;;;;;5046979;28;20413;-86
2022/04/05 03:15:15;;;;;;;26.20;20.35;;;0.30;99.90;;;;;;5043812;28;20499;-86
2022/04/05 03:17:45;;;;;;;24.45;19.20;;;0.30;99.90;;;;;;5045016;28;20439;-85
2022/04/05 03:20:18;;;;;;;27.20;21.15;;;0.30;99.90;;;;;;5040487;28;20879;-86
2022/04/05 03:22:49;;;;;;;27.30;22.17;;;0.30;99.90;;;;;;5030997;28;20385;-85
2022/04/05 03:25:17;;;;;;;26.10;20.60;;;0.30;99.90;;;;;;5033549;28;20754;-86
2022/04/05 03:27:47;;;;;;;26.23;20.30;;;0.30;99.90;;;;;;5033179;28;20410;-85
2022/04/05 03:30:19;;;;;;;27.55;22.15;;;0.30;99.90;;;;;;5049682;28;20450;-86
2022/04/05 03:32:48;;;;;;;27.63;21.13;;;0.30;99.90;;;;;;5041907;28;20457;-87
2022/04/05 03:35:17;;;;;;;27.88;20.92;;;0.30;99.90;;;;;;5029837;28;20465;-87
2022/04/05 03:37:46;;;;;;;26.55;20.48;;;0.30;99.90;;;;;;5053014;28;20510;-86
2022/04/05 03:40:13;;;;;;;28.17;22.15;;;0.30;99.90;;;;;;5036540;28;20735;-86
2022/04/05 03:42:43;;;;;;;25.63;20.45;;;0.30;99.90;;;;;;5051822;28;20405;-86
2022/04/05 03:45:12;;;;;;;25.33;18.80;;;0.40;99.90;;;;;;5047331;28;20499;-86
2022/04/05 03:47:40;;;;;;;25.40;19.92;;;0.40;99.90;;;;;;5052864;28;20770;-87
2022/04/05 03:50:10;;;;;;;28.08;21.45;;;0.30;99.90;;;;;;5059161;28;20407;-86
2022/04/05 03:52:42;;;;;;;27.30;21.63;;;0.30;99.90;;;;;;5053409;28;20439;-86
2022/04/05 03:55:12;;;;;;;26.25;19.15;;;0.40;99.90;;;;;;5049500;28;20403;-86
2022/04/05 03:57:45;;;;;;;24.33;19.95;;;0.30;99.90;;;;;;5034892;28;20437;-86
2022/04/05 04:00:16;;;;;;;27.08;20.05;;;0.30;99.90;;;;;;5044610;28;20479;-86
2022/04/05 04:02:54;;;;;;;27.60;21.27;;;0.30;99.90;;;;;;5034667;28;20408;-87
2022/04/05 04:05:22;;;;;;;26.23;20.67;;;0.30;99.90;;;;;;5035557;28;20463;-85
2022/04/05 04:07:53;;;;;;;23.65;18.08;;;0.30;99.90;;;;;;5036989;28;20395;-84
2022/04/05 04:10:23;;;;;;;23.63;18.42;;;0.30;99.90;;;;;;5068633;28;20396;-85
2022/04/05 04:12:55;;;;;;;25.30;19.00;;;0.30;99.90;;;;;;5052829;28;20494;-87
2022/04/05 04:15:27;;;;;;;25.25;18.92;;;0.30;99.90;;;;;;5060075;28;20408;-86
2022/04/05 04:17:55;;;;;;;25.03;19.60;;;0.40;99.90;;;;;;5044837;28;20412;-86
2022/04/05 04:20:23;;;;;;;24.20;18.80;;;0.40;99.90;;;;;;5052652;28;20801;-86
2022/04/05 04:22:51;;;;;;;26.03;19.47;;;0.40;99.90;;;;;;5052172;28;20804;-86
2022/04/05 04:25:19;;;;;;;23.90;17.97;;;0.40;99.90;;;;;;5052805;28;20898;-86
2022/04/05 04:27:49;;;;;;;21.52;16.55;;;0.40;99.90;;;;;;5039482;28;20414;-86
2022/04/05 04:30:17;;;;;;;21.02;16.33;;;0.40;99.90;;;;;;5051879;28;20432;-86
2022/04/05 04:32:45;;;;;;;21.73;15.98;;;0.40;99.90;;;;;;5041763;28;20502;-86
2022/04/05 04:35:12;;;;;;;21.98;15.65;;;0.40;99.90;;;;;;5060491;28;20414;-86
2022/04/05 04:37:40;;;;;;;20.55;14.82;;;0.40;99.90;;;;;;5043181;28;20400;-85
2022/04/05 04:40:09;;;;;;;20.52;16.08;;;0.40;99.90;;;;;;5051788;28;20984;-86
2022/04/05 04:42:36;;;;;;;19.77;15.13;;;0.40;99.90;;;;;;5051890;28;20442;-86
2022/04/05 04:45:05;;;;;;;18.58;14.07;;;0.40;99.90;;;;;;5051529;28;20438;-86
2022/04/05 04:47:33;;;;;;;19.95;14.57;;;0.40;99.90;;;;;;5032260;28;20657;-85
2022/04/05 04:50:00;;;;;;;22.65;16.27;;;0.40;99.90;;;;;;5034714;28;20397;-87
2022/04/05 04:52:28;;;;;;;19.42;14.93;;;0.40;99.90;;;;;;5054331;28;20399;-86
2022/04/05 04:54:56;;;;;;;20.17;15.07;;;0.40;99.90;;;;;;5051625;28;20408;-85
2022/04/05 04:57:25;;;;;;;19.52;13.55;;;0.40;99.90;;;;;;5035025;28;20396;-87
2022/04/05 04:59:53;;;;;;;17.65;13.10;;;0.40;99.90;;;;;;5057388;28;20495;-87
2022/04/05 05:02:22;;;;;;;17.15;12.63;;;0.50;99.90;;;;;;5051773;28;20408;-85
2022/04/05 05:04:51;;;;;;;16.20;12.77;;;0.40;99.90;;;;;;5056617;28;20760;-86
2022/04/05 05:07:18;;;;;;;15.77;11.65;;;0.40;99.90;;;;;;5068495;28;20747;-86
2022/04/05 05:09:46;;;;;;;14.90;12.00;;;0.40;99.90;;;;;;5071163;28;20432;-88
2022/04/05 05:12:14;;;;;;;17.10;12.65;;;0.40;99.90;;;;;;5092659;28;20396;-87
2022/04/05 05:14:42;;;;;;;16.50;11.93;;;0.40;99.90;;;;;;5073455;28;20499;-86
2022/04/05 05:17:09;;;;;;;15.80;12.25;;;0.40;99.90;;;;;;5091844;28;20399;-86
2022/04/05 05:19:37;;;;;;;15.43;11.73;;;0.40;99.90;;;;;;5071494;28;20412;-86
2022/04/05 05:22:04;;;;;;;15.90;12.27;;;0.40;99.90;;;;;;5083222;28;20949;-86
2022/04/05 05:24:33;;;;;;;14.98;11.27;;;0.40;99.90;;;;;;5067575;28;20396;-86
2022/04/05 05:27:01;;;;;;;15.43;11.27;;;0.40;99.90;;;;;;5057535;28;20625;-87
2022/04/05 05:29:28;;;;;;;16.30;11.27;;;0.40;99.90;;;;;;5073793;28;20886;-85
2022/04/05 05:31:56;;;;;;;14.90;10.50;;;0.40;99.90;;;;;;5092104;28;22873;-85
2022/04/05 05:34:24;;;;;;;15.52;11.40;;;0.50;99.90;;;;;;5057644;28;20416;-86
2022/04/05 05:36:52;;;;;;;15.75;11.38;;;0.50;99.90;;;;;;5063552;28;20372;-86
2022/04/05 05:39:19;;;;;;;15.88;11.13;;;0.50;99.90;;;;;;5080119;28;20396;-86
2022/04/05 05:41:47;;;;;;;12.93;10.15;;;0.50;99.90;;;;;;5068023;28;20400;-86
2022/04/05 05:44:15;;;;;;;13.30;9.40;;;0.50;99.90;;;;;;5063194;28;20460;-86
2022/04/05 05:46:42;;;;;;;12.55;9.65;;;0.50;99.90;;;;;;5091137;28;20421;-86
2022/04/05 05:49:10;;;;;;;13.55;10.15;;;0.50;99.90;;;;;;5059630;28;20427;-87
2022/04/05 05:51:38;;;;;;;13.63;10.30;;;0.50;99.90;;;;;;5067942;28;20736;-86
2022/04/05 05:54:06;;;;;;;13.48;9.63;;;0.50;99.90;;;;;;5057451;28;20483;-89
2022/04/05 05:56:34;;;;;;;14.43;10.98;;;0.50;99.90;;;;;;5079073;28;20384;-88
2022/04/05 05:59:02;;;;;;;13.55;9.98;;;0.60;99.90;;;;;;5084884;28;20380;-88
2022/04/05 06:01:30;;;;;;;16.40;10.93;;;0.60;99.90;;;;;;5079468;28;20419;-86
2022/04/05 06:03:57;;;;;;;13.02;9.02;;;0.60;99.90;;;;;;5055496;28;20424;-86
2022/04/05 06:06:25;;;;;;;13.52;9.55;;;0.60;99.90;;;;;;5048449;28;20432;-85
2022/04/05 06:08:53;;;;;;;15.47;10.57;;;0.60;99.90;;;;;;5064783;28;20441;-86
2022/04/05 06:11:21;;;;;;;14.43;9.95;;;0.60;99.90;;;;;;5090522;28;20490;-86
2022/04/05 06:13:49;;;;;;;14.10;10.10;;;0.60;99.90;;;;;;5057093;28;20754;-86
2022/04/05 06:16:18;;;;;;;13.88;9.80;;;0.60;99.90;;;;;;5079664;28;20458;-85
2022/04/05 06:18:49;;;;;;;17.05;11.15;;;0.60;99.90;;;;;;5073728;28;20495;-85
2022/04/05 06:21:19;;;;;;;14.90;10.02;;;0.60;99.90;;;;;;5073494;28;20408;-85
2022/04/05 06:23:47;;;;;;;14.57;9.95;;;0.60;99.90;;;;;;5071043;28;20393;-85
2022/04/05 06:26:14;;;;;;;16.48;10.70;;;0.60;99.90;;;;;;5090715;28;20960;-86
2022/04/05 06:28:42;;;;;;;14.50;10.73;;;0.60;99.90;;;;;;5067726;28;20430;-86
2022/04/05 06:31:10;;;;;;;14.90;9.57;;;0.60;99.90;;;;;;5089496;28;20430;-86
2022/04/05 06:33:37;;;;;;;13.63;9.40;;;0.60;99.90;;;;;;5056692;28;20455;-86
2022/04/05 06:36:05;;;;;;;12.52;8.70;;;0.60;99.90;;;;;;5054939;28;20412;-85
2022/04/05 06:38:33;;;;;;;13.77;8.90;;;0.60;99.90;;;;;;5074541;28;20395;-85
2022/04/05 06:41:05;;;;;;;13.50;9.57;;;0.70;99.90;;;;;;5068105;28;20398;-85
2022/04/05 06:43:34;;;;;;;11.35;8.18;;;0.70;99.90;;;;;;5089719;28;20394;-84
2022/04/05 06:46:01;;;;;;;11.98;8.57;;;0.70;99.90;;;;;;5083903;28;20400;-84
2022/04/05 06:48:29;;;;;;;12.88;8.30;;;0.70;99.90;;;;;;5083762;28;20401;-85
2022/04/05 06:50:57;;;;;;;9.63;7.20;;;0.70;99.90;;;;;;5072664;28;20404;-84
2022/04/05 06:53:26;;;;;;;9.80;7.63;;;0.70;99.90;;;;;;5091694;28;20419;-85
2022/04/05 06:55:54;;;;;;;9.10;6.60;;;0.80;99.90;;;;;;5081985;28;20458;-85
2022/04/05 06:58:22;;;;;;;8.50;6.35;;;0.70;99.90;;;;;;5056696;28;20422;-85
2022/04/05 07:00:49;;;;;;;9.35;6.82;;;0.70;99.90;;;;;;5090627;28;20400;-85
2022/04/05 07:03:17;;;;;;;9.45;6.13;;;0.70;99.90;;;;;;5072525;28;20889;-85
2022/04/05 07:05:45;;;;;;;9.65;7.15;;;0.70;99.90;;;;;;5072596;28;20396;-85
2022/04/05 07:08:13;;;;;;;9.00;6.20;;;0.80;99.90;;;;;;5090355;28;20727;-84
2022/04/05 07:10:40;;;;;;;9.20;6.60;;;0.80;99.90;;;;;;5076681;28;20409;-83
2022/04/05 07:13:08;;;;;;;9.80;6.88;;;0.80;99.90;;;;;;5059186;28;20411;-84
2022/04/05 07:15:36;;;;;;;10.32;7.45;;;0.80;99.90;;;;;;5060089;28;20396;-85
2022/04/05 07:18:04;;;;;;;10.80;7.07;;;0.80;99.90;;;;;;5069665;28;20409;-85
2022/04/05 07:20:34;;;;;;;8.95;6.90;;;0.80;99.90;;;;;;5066733;28;20461;-86
2022/04/05 07:23:02;;;;;;;11.23;8.05;;;0.80;99.90;;;;;;5068394;28;20771;-89
2022/04/05 07:25:31;;;;;;;9.45;6.57;;;0.90;99.90;;;;;;5084428;28;20731;-87
2022/04/05 07:28:01;;;;;;;12.20;7.40;;;0.90;99.90;;;;;;5076347;28;20442;-87
2022/04/05 07:30:29;;;;;;;11.10;7.55;;;0.90;99.90;;;;;;5060009;28;20408;-87
2022/04/05 07:32:56;;;;;;;12.15;8.00;;;0.90;99.90;;;;;;5093150;28;20947;-86
2022/04/05 07:35:24;;;;;;;13.20;7.75;;;0.90;99.90;;;;;;5086536;28;20392;-87
2022/04/05 07:37:53;;;;;;;13.15;8.45;;;1.00;99.90;;;;;;5068590;28;20404;-87
2022/04/05 07:40:21;;;;;;;10.23;6.50;;;1.00;99.90;;;;;;5082641;28;20401;-86
2022/04/05 07:42:49;;;;;;;8.60;6.30;;;1.00;99.90;;;;;;5058921;28;20426;-86
2022/04/05 07:45:17;;;;;;;9.20;6.38;;;1.00;99.90;;;;;;5075971;28;20381;-86
2022/04/05 07:47:45;;;;;;;10.45;7.43;;;1.00;99.90;;;;;;5076243;28;20453;-88
2022/04/05 07:50:13;;;;;;;9.13;6.10;;;1.00;99.90;;;;;;5076148;28;20397;-87
2022/04/05 07:52:44;;;;;;;8.73;6.25;;;1.00;99.90;;;;;;5065763;28;20408;-85
2022/04/05 07:55:12;;;;;;;10.05;6.25;;;1.00;99.90;;;;;;5092392;28;20454;-85
2022/04/05 07:57:40;;;;;;;9.43;6.65;;;1.10;99.90;;;;;;5093637;28;20962;-87
2022/04/05 08:00:09;;;;;;;8.85;6.25;;;1.10;99.90;;;;;;5066264;28;20483;-84
2022/04/05 08:02:40;;;;;;;9.55;6.65;;;1.10;99.90;;;;;;5072720;28;20406;-84
2022/04/05 08:05:15;;;;;;;8.57;6.60;;;1.10;99.90;;;;;;5071021;28;20768;-87
2022/04/05 08:07:44;;;;;;;9.55;7.10;;;1.20;99.90;;;;;;5068163;28;20944;-87
2022/04/05 08:10:13;;;;;;;8.93;6.40;;;1.20;99.90;;;;;;5070088;28;20406;-86
2022/04/05 08:12:43;;;;;;;8.10;6.18;;;1.20;99.90;;;;;;5082411;28;20484;-87
2022/04/05 08:15:13;;;;;;;8.32;6.05;;;1.20;99.90;;;;;;5065070;28;20388;-87
2022/04/05 08:17:41;;;;;;;8.38;5.85;;;1.30;99.90;;;;;;5066059;28;20442;-85
2022/04/05 08:20:10;;;;;;;8.53;5.83;;;1.30;99.90;;;;;;5074943;28;20409;-87
2022/04/05 08:22:37;;;;;;;9.20;6.03;;;1.40;99.90;;;;;;5092658;28;20388;-86
2022/04/05 08:25:06;;;;;;;8.35;6.03;;;1.40;99.90;;;;;;5075209;28;20446;-86
2022/04/05 08:27:34;;;;;;;8.00;6.28;;;1.50;99.90;;;;;;5069136;28;20920;-86
2022/04/05 08:30:04;;;;;;;8.70;5.53;;;1.60;99.90;;;;;;5090352;28;20396;-87
2022/04/05 08:32:34;;;;;;;7.25;4.88;;;1.60;99.90;;;;;;5092010;28;20407;-88
2022/04/05 08:35:03;;;;;;;6.97;5.03;;;1.60;99.90;;;;;;5082202;28;20470;-88
2022/04/05 08:37:31;;;;;;;8.18;4.97;;;1.60;99.90;;;;;;5072136;28;20503;-88
2022/04/05 08:39:59;;;;;;;3.88;2.22;;;1.50;99.90;;;;;;5085593;28;20479;-87
2022/04/05 08:42:27;;;;;;;1.47;0.97;;;1.30;99.90;;;;;;5077821;28;20405;-87
2022/04/05 08:44:56;;;;;;;1.58;1.00;;;1.10;99.90;;;;;;5070989;28;20406;-86
2022/04/05 08:47:25;;;;;;;1.10;0.70;;;1.00;99.90;;;;;;5066704;28;20396;-84
2022/04/05 08:49:53;;;;;;;2.05;0.85;;;1.00;99.90;;;;;;5062765;28;20408;-85
2022/04/05 08:52:21;;;;;;;1.08;0.60;;;1.00;99.90;;;;;;5069843;28;20406;-86
2022/04/05 08:54:48;;;;;;;0.70;0.50;;;1.10;99.90;;;;;;5074448;28;20483;-85
2022/04/05 08:57:16;;;;;;;0.73;0.45;;;1.20;99.90;;;;;;5072491;28;20402;-85
2022/04/05 08:59:43;;;;;;;0.90;0.40;;;1.40;99.90;;;;;;5063884;28;20399;-84
2022/04/05 09:02:11;;;;;;;0.90;0.50;;;1.40;99.90;;;;;;5074541;28;20484;-83
2022/04/05 09:04:39;;;;;;;1.30;0.40;;;1.40;99.90;;;;;;5091201;28;20794;-85
2022/04/05 09:07:30;;;;;;;0.93;0.43;;;1.40;99.90;;;;;;5068640;28;20406;-87
2022/04/05 09:10:17;;;;;;;0.37;0.33;;;1.60;99.90;;;;;;5088257;28;20420;-87
2022/04/05 09:12:47;;;;;;;2.60;0.60;;;1.70;99.90;;;;;;5072169;28;20424;-87
2022/04/05 09:15:17;;;;;;;0.57;0.43;;;1.80;99.90;;;;;;5068397;28;20766;-86
2022/04/05 09:17:46;;;;;;;1.10;0.60;;;2.00;99.90;;;;;;5074426;28;20384;-87
2022/04/05 09:20:18;;;;;;;0.67;0.50;;;2.10;99.90;;;;;;5057192;28;20493;-86
2022/04/05 09:22:46;;;;;;;0.80;0.60;;;2.20;99.90;;;;;;5068272;28;20395;-86
2022/04/05 09:25:16;;;;;;;1.52;0.70;;;2.20;99.90;;;;;;5074131;28;20445;-84
2022/04/05 09:27:43;;;;;;;1.35;0.60;;;2.10;99.90;;;;;;5073830;28;20400;-87
2022/04/05 09:30:23;;;;;;;0.22;0.20;;;1.80;99.90;;;;;;5073717;28;20483;-83
2022/04/05 09:32:52;;;;;;;0.30;0.20;;;1.10;99.90;;;;;;5069050;28;20392;-87
2022/04/05 09:35:40;;;;;;;0.60;0.20;;;1.10;99.90;;;;;;5086601;28;20408;-84
2022/04/05 09:38:12;;;;;;;0.55;0.30;;;1.00;99.90;;;;;;5090858;28;20435;-85
2022/04/05 09:40:40;;;;;;;1.23;0.22;;;1.10;99.90;;;;;;5081050;28;20450;-84
2022/04/05 09:43:31;;;;;;;0.57;0.30;;;1.10;99.90;;;;;;5071365;28;20400;-84
2022/04/05 09:46:01;;;;;;;0.32;0.20;;;1.30;99.90;;;;;;5093767;28;20788;-87
2022/04/05 09:48:33;;;;;;;0.30;0.20;;;1.40;99.90;;;;;;5056967;28;20400;-87
2022/04/05 09:51:16;;;;;;;0.45;0.28;;;1.60;99.90;;;;;;5067770;28;20396;-87
2022/04/05 09:53:50;;;;;;;1.10;0.38;;;1.80;99.90;;;;;;5073567;28;20400;-87
2022/04/05 09:56:26;;;;;;;0.45;0.22;;;1.90;99.90;;;;;;5091691;28;20882;-86
2022/04/05 09:59:02;;;;;;;0.70;0.20;;;1.80;99.90;;;;;;5091497;28;20404;-86
2022/04/05 10:01:33;;;;;;;0.50;0.30;;;1.60;99.90;;;;;;5089871;28;20404;-86
2022/04/05 10:04:04;;;;;;;1.70;0.30;;;1.60;99.90;;;;;;5056267;28;20428;-87
2022/04/05 10:06:33;;;;;;;0.32;0.20;;;1.60;99.90;;;;;;5064674;28;20458;-86
2022/04/05 10:09:01;;;;;;;0.40;0.20;;;1.60;99.90;;;;;;5091425;28;20784;-86
2022/04/05 10:11:32;;;;;;;1.20;0.30;;;1.80;99.90;;;;;;5056679;28;20400;-85
2022/04/05 10:14:00;;;;;;;0.47;0.20;;;2.00;99.90;;;;;;5073814;28;20478;-86
2022/04/05 10:16:30;;;;;;;0.50;0.30;;;2.00;99.90;;;;;;5091006;28;20407;-85
2022/04/05 10:19:10;;;;;;;0.68;0.20;;;2.10;99.90;;;;;;5090011;28;20396;-85
2022/04/05 10:21:43;;;;;;;0.60;0.30;;;2.20;99.90;;;;;;5078024;28;20754;-85
2022/04/05 10:24:12;;;;;;;0.68;0.25;;;2.20;99.90;;;;;;5090197;28;20396;-86
2022/04/05 10:26:43;;;;;;;1.70;0.30;;;2.00;99.90;;;;;;5090062;28;20916;-85
2022/04/05 10:29:17;;;;;;;0.50;0.20;;;1.80;99.90;;;;;;5065805;28;20399;-86
2022/04/05 10:32:03;;;;;;;0.30;0.20;;;1.70;99.90;;;;;;5063049;28;20408;-86
2022/04/05 10:34:46;;;;;;;0.55;0.25;;;1.60;99.90;;;;;;5089981;28;20415;-86
2022/04/05 10:37:18;;;;;;;0.30;0.20;;;1.50;99.90;;;;;;5062639;28;20494;-86
2022/04/05 10:39:57;;;;;;;1.80;0.20;;;1.50;99.90;;;;;;5089151;28;20472;-86
2022/04/05 10:42:43;;;;;;;0.70;0.30;;;1.50;99.90;;;;;;5062144;28;20723;-86
2022/04/05 10:45:13;;;;;;;2.28;0.40;;;1.60;99.90;;;;;;5082519;28;20429;-86
2022/04/05 10:48:13;;;;;;;1.15;0.60;;;1.60;99.90;;;;;;5092322;28;20398;-85
2022/04/05 10:51:00;;;;;;;0.88;0.30;;;1.60;99.90;;;;;;5075493;28;20490;-85
2022/04/05 10:53:35;;;;;;;0.87;0.30;;;1.60;99.90;;;;;;5071140;28;20388;-86
2022/04/05 10:56:03;;;;;;;0.85;0.40;;;1.60;99.90;;;;;;5066946;28;20400;-87
2022/04/05 10:58:47;;;;;;;0.22;0.20;;;1.60;99.90;;;;;;5093821;28;20483;-87
2022/04/05 11:01:22;;;;;;;0.30;0.20;;;1.60;99.90;;;;;;5077005;28;20457;-87
2022/04/05 11:04:18;;;;;;;0.70;0.28;;;1.60;99.90;;;;;;5081455;28;20452;-86
2022/04/05 11:06:58;;;;;;;1.15;0.30;;;1.50;99.90;;;;;;5065042;28;20392;-86
2022/04/05 11:09:33;;;;;;;2.20;0.40;;;1.50;99.90;;;;;;5076314;28;20469;-86
2022/04/05 11:12:03;;;;;;;0.73;0.30;;;1.50;99.90;;;;;;5076593;28;20434;-86
2022/04/05 11:14:35;;;;;;;0.60;0.30;;;1.50;99.90;;;;;;5053033;28;20767;-86
2022/04/05 11:17:07;;;;;;;0.83;0.30;;;1.40;99.90;;;;;;5067828;28;20408;-86
2022/04/05 11:19:37;;;;;;;1.92;0.30;;;1.40;99.90;;;;;;5056503;28;20412;-86
2022/04/05 11:22:21;;;;;;;1.00;0.30;;;1.20;99.90;;;;;;5086472;28;20878;-86
2022/04/05 11:25:10;;;;;;;0.20;0.20;;;1.00;99.90;;;;;;5058720;28;20927;-85
2022/04/05 11:27:46;;;;;;;0.40;0.20;;;0.70;99.90;;;;;;5068161;28;20885;-85
2022/04/05 11:30:37;;;;;;;1.00;0.20;;;0.70;99.90;;;;;;5073318;28;20404;-86
2022/04/05 11:33:17;;;;;;;1.98;0.30;;;0.80;99.90;;;;;;5085699;28;20453;-85
2022/04/05 11:35:52;;;;;;;0.80;0.30;;;0.80;99.90;;;;;;5075453;28;20424;-85
2022/04/05 11:38:20;;;;;;;1.55;0.20;;;0.90;99.90;;;;;;5070975;28;20404;-86
2022/04/05 11:41:11;;;;;;;0.45;0.20;;;1.00;99.90;;;;;;5057662;28;20400;-86
2022/04/05 11:43:44;;;;;;;1.10;0.10;;;1.00;99.90;;;;;;5070215;28;20389;-85
2022/04/05 11:46:13;;;;;;;0.55;0.20;;;0.90;99.90;;;;;;5071097;28;20404;-85
2022/04/05 11:49:03;;;;;;;1.38;0.30;;;0.90;99.90;;;;;;5071970;28;20392;-85
2022/04/05 11:51:37;;;;;;;0.68;0.20;;;0.90;99.90;;;;;;5073459;28;20392;-85
2022/04/05 11:54:06;;;;;;;0.30;0.20;;;0.90;99.90;;;;;;5075380;28;20428;-85
2022/04/05 11:56:34;;;;;;;0.50;0.25;;;0.90;99.90;;;;;;5066324;28;20799;-85
2022/04/05 11:59:05;;;;;;;0.52;0.20;;;1.00;99.90;;;;;;5087395;28;20392;-85
2022/04/05 12:01:36;;;;;;;1.55;0.40;;;0.90;99.90;;;;;;5075997;28;20404;-85
2022/04/05 12:04:11;;;;;;;0.40;0.30;;;0.80;99.90;;;;;;5075067;28;20412;-85
2022/04/05 12:06:42;;;;;;;0.32;0.20;;;0.60;99.90;;;;;;5066179;28;20380;-85
2022/04/05 12:09:15;;;;;;;1.15;0.30;;;0.60;99.90;;;;;;5069036;28;20806;-85
2022/04/05 12:11:45;;;;;;;0.97;0.30;;;0.60;99.90;;;;;;5073378;28;20499;-85
2022/04/05 12:14:16;;;;;;;1.25;0.30;;;0.80;99.90;;;;;;5074518;28;20804;-85
2022/04/05 12:16:52;;;;;;;1.58;0.50;;;1.00;99.90;;;;;;5073793;28;20689;-85
2022/04/05 12:19:28;;;;;;;1.00;0.30;;;1.10;99.90;;;;;;5093540;28;20400;-85
2022/04/05 12:22:00;;;;;;;0.40;0.40;;;1.00;99.90;;;;;;5075368;28;20408;-85
2022/04/05 12:24:34;;;;;;;0.77;0.30;;;1.00;99.90;;;;;;5059329;28;20432;-84
2022/04/05 12:27:04;;;;;;;1.60;0.50;;;1.10;99.90;;;;;;5073135;28;20910;-85
2022/04/05 12:29:42;;;;;;;1.90;0.60;;;1.10;99.90;;;;;;5065112;28;20876;-84
2022/04/05 12:32:13;;;;;;;1.48;0.50;;;0.80;99.90;;;;;;5072520;28;20396;-85
2022/04/05 12:34:42;;;;;;;2.10;0.47;;;0.70;99.90;;;;;;5092905;28;20407;-85
2022/04/05 12:37:14;;;;;;;1.30;0.50;;;0.60;99.90;;;;;;5074854;28;20435;-86
2022/04/05 12:39:49;;;;;;;0.55;0.40;;;0.50;99.90;;;;;;5066886;28;20412;-85
2022/04/05 12:42:19;;;;;;;1.70;0.40;;;0.40;99.90;;;;;;5093031;28;20506;-86
2022/04/05 12:44:56;;;;;;;1.45;0.60;;;0.30;99.90;;;;;;5088843;28;20397;-85
2022/04/05 12:47:26;;;;;;;0.75;0.50;;;0.40;99.90;;;;;;5076121;28;20394;-85
2022/04/05 12:50:04;;;;;;;1.10;0.50;;;0.80;99.90;;;;;;5064440;28;20392;-85
2022/04/05 12:52:34;;;;;;;1.40;0.40;;;1.10;99.90;;;;;;5055477;28;20396;-86
2022/04/05 12:55:18;;;;;;;1.42;0.60;;;1.10;99.90;;;;;;5093267;28;20875;-85
2022/04/05 12:57:48;;;;;;;2.00;0.40;;;1.00;99.90;;;;;;5068694;28;20410;-86
2022/04/05 13:00:21;;;;;;;2.10;0.52;;;0.90;99.90;;;;;;5058270;28;20400;-84
2022/04/05 13:02:59;;;;;;;2.72;0.70;;;0.80;99.90;;;;;;5072454;28;20475;-86